Time;durP1;ratioP1;P1;durP2;ratioP2;P2;SDS_P1;SDS_P2;PMS_P1;PMS_P2;Temp;Humidity;BMP_temperature;BMP_pressure;BME280_temperature;BME280_humidity;BME280_pressure;Samples;Min_cycle;Max_cycle;Signal;HPM_P1;HPM_P2
2023/12/06 00:00:48;;;;;;;0.40;0.40;;;2.50;99.90;;;;;;2053405;28;20211;-82
2023/12/06 00:01:49;;;;;;;1.17;0.40;;;2.40;99.90;;;;;;2050282;28;20932;-83
2023/12/06 00:02:49;;;;;;;0.30;0.30;;;2.40;99.90;;;;;;2045127;28;20197;-83
2023/12/06 00:03:50;;;;;;;0.20;0.20;;;2.40;99.90;;;;;;2033816;28;20185;-82
2023/12/06 00:04:51;;;;;;;0.40;0.40;;;2.50;99.90;;;;;;2049814;28;20637;-81
2023/12/06 00:05:52;;;;;;;0.30;0.30;;;2.40;99.90;;;;;;2038526;28;20219;-83
2023/12/06 00:06:53;;;;;;;0.30;0.30;;;2.40;99.90;;;;;;2035768;28;20191;-82
2023/12/06 00:07:54;;;;;;;1.03;0.30;;;2.40;99.90;;;;;;2030123;28;20806;-83
2023/12/06 00:08:54;;;;;;;0.30;0.30;;;2.40;99.90;;;;;;2039679;28;20199;-82
2023/12/06 00:09:55;;;;;;;0.20;0.20;;;2.40;99.90;;;;;;2032194;28;20252;-82
2023/12/06 00:10:57;;;;;;;0.30;0.30;;;2.30;99.90;;;;;;2041467;28;20197;-82
2023/12/06 00:11:58;;;;;;;0.30;0.30;;;2.40;99.90;;;;;;2033496;28;20226;-82
2023/12/06 00:12:59;;;;;;;0.30;0.30;;;2.40;99.90;;;;;;2039988;28;20216;-83
2023/12/06 00:13:59;;;;;;;0.40;0.40;;;2.40;99.90;;;;;;2037962;28;20199;-82
2023/12/06 00:15:00;;;;;;;0.33;0.33;;;2.50;99.90;;;;;;2029220;28;20276;-82
2023/12/06 00:16:01;;;;;;;0.23;0.23;;;2.60;99.90;;;;;;2061191;28;20331;-83
2023/12/06 00:17:02;;;;;;;0.30;0.30;;;2.60;99.90;;;;;;2051028;28;20201;-83
2023/12/06 00:18:03;;;;;;;0.20;0.20;;;2.60;99.90;;;;;;2041327;28;20771;-82
2023/12/06 00:19:03;;;;;;;0.20;0.20;;;2.50;99.90;;;;;;2051875;28;20191;-82
2023/12/06 00:20:05;;;;;;;0.93;0.30;;;2.50;99.90;;;;;;2042368;28;20205;-81
2023/12/06 00:21:06;;;;;;;0.20;0.20;;;2.50;99.90;;;;;;2051826;28;20229;-82
2023/12/06 00:22:06;;;;;;;0.20;0.20;;;2.50;99.90;;;;;;2054398;28;20251;-83
2023/12/06 00:23:08;;;;;;;0.20;0.20;;;2.50;99.90;;;;;;2048871;28;20263;-83
2023/12/06 00:24:08;;;;;;;0.70;0.30;;;2.40;99.90;;;;;;2035666;28;20230;-83
2023/12/06 00:25:09;;;;;;;0.30;0.30;;;2.50;99.90;;;;;;2025769;29;20238;-82
2023/12/06 00:26:10;;;;;;;0.30;0.30;;;2.50;99.90;;;;;;2032549;28;20835;-84
2023/12/06 00:27:11;;;;;;;0.30;0.30;;;2.50;99.90;;;;;;2035712;28;20232;-83
2023/12/06 00:28:11;;;;;;;1.13;0.40;;;2.50;99.90;;;;;;2031289;28;20233;-83
2023/12/06 00:29:12;;;;;;;0.67;0.30;;;2.50;99.90;;;;;;2035287;28;20223;-83
2023/12/06 00:30:13;;;;;;;0.53;0.40;;;2.50;99.90;;;;;;2068373;28;20635;-82
2023/12/06 00:31:13;;;;;;;0.47;0.47;;;2.50;99.90;;;;;;2071231;28;20315;-83
2023/12/06 00:32:14;;;;;;;0.40;0.40;;;2.50;99.90;;;;;;2042794;28;20232;-82
2023/12/06 00:33:15;;;;;;;0.50;0.50;;;2.50;99.90;;;;;;2039609;28;20231;-82
2023/12/06 00:34:15;;;;;;;0.87;0.53;;;2.50;99.90;;;;;;2034973;28;20265;-82
2023/12/06 00:35:16;;;;;;;0.40;0.40;;;2.50;99.90;;;;;;2049711;28;20622;-82
2023/12/06 00:36:17;;;;;;;1.53;0.70;;;2.60;99.90;;;;;;2061409;28;20232;-82
2023/12/06 00:37:17;;;;;;;1.07;0.90;;;2.50;99.90;;;;;;2061654;28;20217;-81
2023/12/06 00:38:18;;;;;;;1.73;0.83;;;2.50;99.90;;;;;;2048420;28;20239;-81
2023/12/06 00:39:19;;;;;;;0.47;0.47;;;2.50;99.90;;;;;;2053929;28;20235;-82
2023/12/06 00:40:20;;;;;;;0.63;0.60;;;2.50;99.90;;;;;;2045548;28;20229;-82
2023/12/06 00:41:22;;;;;;;0.73;0.50;;;2.50;99.90;;;;;;2036836;28;20241;-83
2023/12/06 00:42:23;;;;;;;1.00;0.60;;;2.60;99.90;;;;;;2028460;29;20614;-83
2023/12/06 00:43:24;;;;;;;0.50;0.40;;;2.60;99.90;;;;;;2033873;28;20239;-81
2023/12/06 00:44:24;;;;;;;0.50;0.40;;;2.50;99.90;;;;;;2042863;28;20661;-81
2023/12/06 00:45:25;;;;;;;0.50;0.40;;;2.50;99.90;;;;;;2039527;28;20299;-82
2023/12/06 00:46:26;;;;;;;0.30;0.30;;;2.50;99.90;;;;;;2043217;28;20241;-81
2023/12/06 00:47:26;;;;;;;0.40;0.37;;;2.50;99.90;;;;;;2031920;28;20237;-81
2023/12/06 00:48:27;;;;;;;0.30;0.30;;;2.50;99.90;;;;;;2032784;28;20705;-81
2023/12/06 00:49:28;;;;;;;0.30;0.30;;;2.50;99.90;;;;;;2031328;28;20251;-82
2023/12/06 00:50:28;;;;;;;0.30;0.30;;;2.50;99.90;;;;;;2045771;28;20232;-81
2023/12/06 00:51:29;;;;;;;0.30;0.30;;;2.60;99.90;;;;;;2026109;28;20241;-82
2023/12/06 00:52:30;;;;;;;0.20;0.20;;;2.50;99.90;;;;;;2044846;28;20241;-81
2023/12/06 00:53:31;;;;;;;0.20;0.20;;;2.70;99.90;;;;;;2044601;28;20256;-81
2023/12/06 00:54:31;;;;;;;0.37;0.37;;;2.70;99.90;;;;;;2027125;28;20229;-81
2023/12/06 00:55:32;;;;;;;0.20;0.20;;;2.70;99.90;;;;;;2019651;28;20245;-81
2023/12/06 00:56:33;;;;;;;0.27;0.27;;;2.70;99.90;;;;;;2024143;28;20234;-82
2023/12/06 00:57:33;;;;;;;0.20;0.20;;;2.70;99.90;;;;;;2034915;29;20238;-80
2023/12/06 00:58:34;;;;;;;0.20;0.20;;;2.80;99.90;;;;;;2035200;29;20236;-80
2023/12/06 00:59:35;;;;;;;0.20;0.20;;;2.60;99.90;;;;;;2039617;28;20653;-81
2023/12/06 01:00:35;;;;;;;0.37;0.37;;;2.60;99.90;;;;;;2036772;28;20243;-82
2023/12/06 01:01:36;;;;;;;0.30;0.30;;;2.60;99.90;;;;;;2047192;28;20240;-82
2023/12/06 01:02:38;;;;;;;0.30;0.30;;;2.60;99.90;;;;;;2032597;29;20323;-81
2023/12/06 01:03:40;;;;;;;0.22;0.22;;;2.50;99.90;;;;;;2034378;28;20330;-81
2023/12/06 01:04:41;;;;;;;0.30;0.30;;;2.50;99.90;;;;;;2034389;29;20255;-82
2023/12/06 01:05:42;;;;;;;0.20;0.20;;;2.50;99.90;;;;;;2052152;28;20690;-81
2023/12/06 01:06:42;;;;;;;0.20;0.20;;;2.50;99.90;;;;;;2036031;28;20644;-82
2023/12/06 01:07:43;;;;;;;0.20;0.20;;;2.60;99.90;;;;;;2031901;28;20240;-82
2023/12/06 01:08:44;;;;;;;0.30;0.30;;;2.60;99.90;;;;;;2055844;28;20229;-82
2023/12/06 01:09:45;;;;;;;0.20;0.20;;;2.60;99.90;;;;;;2046625;28;20232;-81
2023/12/06 01:10:47;;;;;;;0.40;0.40;;;2.70;99.90;;;;;;2047078;28;20280;-82
2023/12/06 01:11:48;;;;;;;0.30;0.30;;;2.60;99.90;;;;;;2061570;28;20193;-82
2023/12/06 01:12:48;;;;;;;0.30;0.30;;;2.60;99.90;;;;;;2047650;28;20191;-82
2023/12/06 01:13:49;;;;;;;0.20;0.20;;;2.70;99.90;;;;;;2039558;29;20623;-82
2023/12/06 01:14:50;;;;;;;0.47;0.27;;;2.70;99.90;;;;;;2041331;28;20187;-83
2023/12/06 01:15:50;;;;;;;0.30;0.30;;;2.80;99.90;;;;;;2035686;28;20208;-81
2023/12/06 01:16:51;;;;;;;0.27;0.27;;;2.80;99.90;;;;;;2049998;28;20193;-82
2023/12/06 01:17:52;;;;;;;0.20;0.20;;;2.80;99.90;;;;;;2040279;28;20802;-81
2023/12/06 01:18:52;;;;;;;0.20;0.20;;;2.70;99.90;;;;;;2046208;28;20188;-82
2023/12/06 01:19:54;;;;;;;0.20;0.20;;;2.70;99.90;;;;;;2043309;28;20193;-82
2023/12/06 01:20:54;;;;;;;0.30;0.30;;;2.70;99.90;;;;;;2037094;28;20193;-83
2023/12/06 01:21:55;;;;;;;0.30;0.30;;;2.70;99.90;;;;;;2038887;28;20177;-82
2023/12/06 01:22:56;;;;;;;0.27;0.27;;;2.60;99.90;;;;;;2045500;28;20288;-81
2023/12/06 01:23:56;;;;;;;0.30;0.30;;;2.60;99.90;;;;;;2031298;28;20642;-82
2023/12/06 01:24:58;;;;;;;0.20;0.20;;;2.60;99.90;;;;;;2027485;28;20221;-82
2023/12/06 01:25:58;;;;;;;2.95;0.40;;;2.60;99.90;;;;;;2048019;28;20191;-82
2023/12/06 01:26:59;;;;;;;0.30;0.30;;;2.60;99.90;;;;;;2052734;28;20325;-82
2023/12/06 01:28:00;;;;;;;0.30;0.30;;;2.70;99.90;;;;;;2055364;28;20278;-82
2023/12/06 01:29:03;;;;;;;0.30;0.30;;;2.60;99.90;;;;;;2036415;28;20672;-81
2023/12/06 01:30:05;;;;;;;0.30;0.30;;;2.60;99.90;;;;;;2040731;28;20303;-82
2023/12/06 01:31:06;;;;;;;0.30;0.30;;;2.60;99.90;;;;;;2037349;28;20285;-81
2023/12/06 01:32:06;;;;;;;0.40;0.30;;;2.70;99.90;;;;;;2044015;28;20647;-81
2023/12/06 01:33:07;;;;;;;0.83;0.53;;;2.60;99.90;;;;;;2052033;28;20288;-82
2023/12/06 01:34:08;;;;;;;0.50;0.50;;;2.60;99.90;;;;;;2030904;28;20232;-82
2023/12/06 01:35:09;;;;;;;0.60;0.60;;;2.60;99.90;;;;;;2028047;28;20291;-81
2023/12/06 01:36:10;;;;;;;0.80;0.73;;;2.50;99.90;;;;;;2030965;29;20229;-81
2023/12/06 01:37:11;;;;;;;0.55;0.55;;;2.50;99.90;;;;;;2046036;28;20233;-81
2023/12/06 01:38:12;;;;;;;0.53;0.50;;;2.50;99.90;;;;;;2023356;28;20301;-82
2023/12/06 01:39:12;;;;;;;0.40;0.40;;;2.50;99.90;;;;;;2045863;28;20262;-81
2023/12/06 01:40:13;;;;;;;0.50;0.50;;;2.50;99.90;;;;;;2058412;28;20227;-81
2023/12/06 01:41:14;;;;;;;0.60;0.60;;;2.40;99.90;;;;;;2042733;28;20260;-81
2023/12/06 01:42:14;;;;;;;0.60;0.60;;;2.40;99.90;;;;;;2026075;29;20243;-82
2023/12/06 01:43:15;;;;;;;0.50;0.50;;;2.40;99.90;;;;;;2041102;28;20244;-81
2023/12/06 01:44:16;;;;;;;0.30;0.30;;;2.40;99.90;;;;;;2032323;29;20282;-82
2023/12/06 01:45:17;;;;;;;0.30;0.30;;;2.40;99.90;;;;;;2042435;28;20235;-81
2023/12/06 01:46:18;;;;;;;0.50;0.50;;;2.40;99.90;;;;;;2057268;28;20232;-82
2023/12/06 01:47:20;;;;;;;0.50;0.47;;;2.30;99.90;;;;;;2045517;28;20296;-81
2023/12/06 01:48:22;;;;;;;0.30;0.30;;;2.20;99.90;;;;;;2020954;28;20316;-81
2023/12/06 01:49:23;;;;;;;0.30;0.30;;;2.20;99.90;;;;;;2024878;28;20237;-81
2023/12/06 01:50:24;;;;;;;0.40;0.40;;;2.20;99.90;;;;;;2030571;28;20237;-82
2023/12/06 01:51:26;;;;;;;0.30;0.30;;;2.20;99.90;;;;;;2042579;28;20874;-82
2023/12/06 01:52:27;;;;;;;0.40;0.40;;;2.20;99.90;;;;;;2037817;28;20273;-81
2023/12/06 01:53:28;;;;;;;0.30;0.30;;;2.20;99.90;;;;;;2041083;28;20253;-82
2023/12/06 01:54:29;;;;;;;0.40;0.40;;;2.20;99.90;;;;;;2024685;28;20237;-81
2023/12/06 01:55:30;;;;;;;0.40;0.30;;;2.30;99.90;;;;;;2021326;28;20265;-81
2023/12/06 01:56:31;;;;;;;0.20;0.20;;;2.30;99.90;;;;;;2037065;28;20573;-81
2023/12/06 01:57:33;;;;;;;0.30;0.30;;;2.20;99.90;;;;;;2046307;28;20272;-82
2023/12/06 01:58:37;;;;;;;0.40;0.40;;;2.20;99.90;;;;;;2044626;28;20247;-82
2023/12/06 01:59:40;;;;;;;0.30;0.30;;;2.10;99.90;;;;;;2042232;28;20227;-82
2023/12/06 02:00:40;;;;;;;0.30;0.30;;;2.10;99.90;;;;;;2066937;28;20214;-83
2023/12/06 02:01:41;;;;;;;0.30;0.30;;;2.20;99.90;;;;;;2057877;28;20219;-82
2023/12/06 02:02:43;;;;;;;0.37;0.37;;;2.20;99.90;;;;;;2066088;28;20258;-82
2023/12/06 02:03:43;;;;;;;0.30;0.30;;;2.20;99.90;;;;;;2030458;28;20232;-82
2023/12/06 02:04:44;;;;;;;0.30;0.30;;;2.20;99.90;;;;;;2017072;28;20273;-83
2023/12/06 02:05:46;;;;;;;0.30;0.30;;;2.20;99.90;;;;;;2027092;28;20965;-82
2023/12/06 02:06:48;;;;;;;0.30;0.30;;;2.20;99.90;;;;;;2028939;28;20238;-81
2023/12/06 02:07:50;;;;;;;0.30;0.30;;;2.20;99.90;;;;;;2031277;29;20278;-83
2023/12/06 02:08:52;;;;;;;0.40;0.40;;;2.20;99.90;;;;;;2070948;28;20197;-80
2023/12/06 02:09:53;;;;;;;0.30;0.30;;;2.30;99.90;;;;;;2027896;28;20650;-82
2023/12/06 02:10:54;;;;;;;0.30;0.30;;;2.30;99.90;;;;;;2045389;28;20239;-82
2023/12/06 02:11:55;;;;;;;0.30;0.30;;;2.30;99.90;;;;;;2037859;28;20908;-82
2023/12/06 02:12:55;;;;;;;0.30;0.30;;;2.30;99.90;;;;;;2026195;28;20241;-82
2023/12/06 02:13:56;;;;;;;0.20;0.20;;;2.30;99.90;;;;;;2035697;28;20193;-82
2023/12/06 02:14:59;;;;;;;0.30;0.30;;;2.20;99.90;;;;;;2045620;28;20579;-83
2023/12/06 02:16:00;;;;;;;0.20;0.20;;;2.20;99.90;;;;;;2035521;29;20212;-81
2023/12/06 02:17:03;;;;;;;0.28;0.28;;;2.20;99.90;;;;;;2036663;28;20204;-83
2023/12/06 02:18:04;;;;;;;0.28;0.28;;;2.20;99.90;;;;;;2040415;28;20215;-81
2023/12/06 02:19:11;;;;;;;0.30;0.30;;;2.20;99.90;;;;;;2040947;28;20196;-82
2023/12/06 02:20:12;;;;;;;0.30;0.30;;;2.10;99.90;;;;;;2053750;28;20225;-81
2023/12/06 02:21:13;;;;;;;0.38;0.32;;;2.20;99.90;;;;;;2039406;28;20247;-82
2023/12/06 02:22:14;;;;;;;0.73;0.40;;;2.10;99.90;;;;;;2047605;28;20253;-82
2023/12/06 02:23:15;;;;;;;0.30;0.30;;;2.10;99.90;;;;;;2059216;28;20216;-82
2023/12/06 02:24:18;;;;;;;0.30;0.30;;;2.10;99.90;;;;;;2020010;28;20857;-82
2023/12/06 02:25:19;;;;;;;0.38;0.30;;;2.20;99.90;;;;;;2020419;29;20586;-82
2023/12/06 02:26:19;;;;;;;0.30;0.30;;;2.10;99.90;;;;;;2027092;28;20241;-82
2023/12/06 02:27:21;;;;;;;0.50;0.50;;;2.10;99.90;;;;;;2039636;28;20236;-83
2023/12/06 02:28:23;;;;;;;0.40;0.40;;;2.10;99.90;;;;;;2035817;29;20216;-81
2023/12/06 02:29:24;;;;;;;0.30;0.30;;;2.10;99.90;;;;;;2034569;28;20225;-81
2023/12/06 02:30:24;;;;;;;0.50;0.50;;;2.10;99.90;;;;;;2059638;28;20288;-81
2023/12/06 02:31:25;;;;;;;0.77;0.40;;;2.10;99.90;;;;;;2034582;29;20248;-81
2023/12/06 02:32:26;;;;;;;0.40;0.40;;;2.10;99.90;;;;;;2065062;28;20315;-80
2023/12/06 02:33:27;;;;;;;0.20;0.20;;;2.00;99.90;;;;;;2058713;28;20244;-81
2023/12/06 02:34:29;;;;;;;0.20;0.20;;;2.00;99.90;;;;;;2033265;29;20248;-82
2023/12/06 02:35:40;;;;;;;0.30;0.30;;;2.00;99.90;;;;;;2052918;28;20221;-80
2023/12/06 02:36:46;;;;;;;0.30;0.30;;;2.10;99.90;;;;;;2050483;28;20279;-80
2023/12/06 02:37:49;;;;;;;0.30;0.30;;;2.10;99.90;;;;;;2049774;28;20236;-82
2023/12/06 02:38:50;;;;;;;0.30;0.30;;;2.10;99.90;;;;;;2065192;28;20200;-82
2023/12/06 02:39:53;;;;;;;0.33;0.33;;;2.00;99.90;;;;;;2065627;28;20218;-84
2023/12/06 02:40:56;;;;;;;0.30;0.30;;;2.00;99.90;;;;;;2048509;28;20197;-81
2023/12/06 02:41:57;;;;;;;0.30;0.30;;;2.00;99.90;;;;;;2062937;28;20206;-82
2023/12/06 02:42:58;;;;;;;0.20;0.20;;;2.10;99.90;;;;;;2054319;28;20203;-82
2023/12/06 02:43:59;;;;;;;0.40;0.40;;;2.20;99.90;;;;;;2052593;28;20247;-82
2023/12/06 02:45:00;;;;;;;0.40;0.40;;;2.20;99.90;;;;;;2037576;28;20201;-82
2023/12/06 02:46:00;;;;;;;0.30;0.30;;;2.20;99.90;;;;;;2050324;28;20260;-82
2023/12/06 02:47:02;;;;;;;0.50;0.50;;;2.20;99.90;;;;;;2059849;28;20283;-83
2023/12/06 02:48:05;;;;;;;0.30;0.30;;;2.20;99.90;;;;;;2049110;28;20196;-83
2023/12/06 02:49:07;;;;;;;0.40;0.40;;;2.20;99.90;;;;;;2035277;28;20293;-83
2023/12/06 02:50:08;;;;;;;0.30;0.30;;;2.20;99.90;;;;;;2038732;29;20265;-82
2023/12/06 02:51:09;;;;;;;0.47;0.47;;;2.20;99.90;;;;;;2043726;28;21036;-82
2023/12/06 02:52:12;;;;;;;0.40;0.40;;;2.20;99.90;;;;;;2030576;28;20230;-83
2023/12/06 02:53:12;;;;;;;0.30;0.30;;;2.20;99.90;;;;;;2030462;29;20221;-83
2023/12/06 02:54:13;;;;;;;1.43;0.40;;;2.30;99.90;;;;;;2035063;28;20226;-83
2023/12/06 02:55:14;;;;;;;0.30;0.30;;;2.40;99.90;;;;;;2023329;28;20617;-84
2023/12/06 02:56:15;;;;;;;0.40;0.40;;;2.40;99.90;;;;;;2024668;28;20233;-83
2023/12/06 02:57:15;;;;;;;0.40;0.40;;;2.40;99.90;;;;;;2038107;28;20262;-83
2023/12/06 02:58:16;;;;;;;0.40;0.40;;;2.50;99.90;;;;;;2044813;28;20773;-83
2023/12/06 02:59:17;;;;;;;0.40;0.40;;;2.50;99.90;;;;;;2033645;28;20228;-83
2023/12/06 03:00:18;;;;;;;0.37;0.37;;;2.40;99.90;;;;;;2025746;28;20741;-84
2023/12/06 03:01:19;;;;;;;0.40;0.40;;;2.50;99.90;;;;;;2031824;28;20714;-83
2023/12/06 03:02:19;;;;;;;0.50;0.50;;;2.50;99.90;;;;;;2028722;29;20260;-82
2023/12/06 03:03:20;;;;;;;0.33;0.33;;;2.40;99.90;;;;;;2032899;29;20260;-81
2023/12/06 03:04:21;;;;;;;0.30;0.30;;;2.30;99.90;;;;;;2063511;28;20255;-82
2023/12/06 03:05:22;;;;;;;0.60;0.60;;;2.30;99.90;;;;;;2025835;28;20253;-84
2023/12/06 03:06:22;;;;;;;0.50;0.50;;;2.30;99.90;;;;;;2054381;28;20253;-82
2023/12/06 03:07:23;;;;;;;0.50;0.50;;;2.20;99.90;;;;;;2061126;28;20225;-82
2023/12/06 03:08:25;;;;;;;0.30;0.30;;;2.20;99.90;;;;;;2028011;29;20344;-82
2023/12/06 03:09:26;;;;;;;1.38;0.60;;;2.20;99.90;;;;;;2025733;29;20256;-82
2023/12/06 03:10:26;;;;;;;0.43;0.40;;;2.20;99.90;;;;;;2040693;28;20231;-83
2023/12/06 03:11:27;;;;;;;0.50;0.40;;;2.20;99.90;;;;;;2059734;28;20231;-82
2023/12/06 03:12:28;;;;;;;0.60;0.60;;;2.20;99.90;;;;;;2048309;28;20229;-81
2023/12/06 03:13:28;;;;;;;0.60;0.60;;;2.20;99.90;;;;;;2026616;29;20748;-81
2023/12/06 03:14:29;;;;;;;0.40;0.40;;;2.20;99.90;;;;;;2032287;29;20290;-82
2023/12/06 03:15:30;;;;;;;0.40;0.40;;;2.20;99.90;;;;;;2050604;28;20228;-81
2023/12/06 03:16:32;;;;;;;0.40;0.40;;;2.30;99.90;;;;;;2036896;28;20226;-81
2023/12/06 03:17:33;;;;;;;0.32;0.32;;;2.30;99.90;;;;;;2050256;28;20233;-81
2023/12/06 03:18:34;;;;;;;1.43;0.60;;;2.30;99.90;;;;;;2053868;28;20232;-82
2023/12/06 03:19:35;;;;;;;0.63;0.30;;;2.30;99.90;;;;;;2027055;29;20300;-82
2023/12/06 03:20:37;;;;;;;0.50;0.50;;;2.30;99.90;;;;;;2032715;28;20231;-81
2023/12/06 03:21:37;;;;;;;0.30;0.30;;;2.20;99.90;;;;;;2050633;28;20262;-81
2023/12/06 03:22:38;;;;;;;0.40;0.40;;;2.20;99.90;;;;;;2049878;28;20228;-81
2023/12/06 03:23:39;;;;;;;0.50;0.50;;;2.30;99.90;;;;;;2033442;29;20243;-82
2023/12/06 03:24:40;;;;;;;0.63;0.40;;;2.30;99.90;;;;;;2043429;28;20475;-82
2023/12/06 03:25:40;;;;;;;0.67;0.67;;;2.30;99.90;;;;;;2051415;28;20326;-83
2023/12/06 03:26:42;;;;;;;0.50;0.50;;;2.30;99.90;;;;;;2037087;28;20232;-82
2023/12/06 03:27:47;;;;;;;0.40;0.40;;;2.30;99.90;;;;;;2053705;28;20239;-82
2023/12/06 03:28:48;;;;;;;0.93;0.50;;;2.40;99.90;;;;;;2030284;28;20256;-82
2023/12/06 03:29:48;;;;;;;0.40;0.40;;;2.50;99.90;;;;;;2031720;28;20187;-82
2023/12/06 03:30:49;;;;;;;0.63;0.40;;;2.40;99.90;;;;;;2045534;28;20249;-82
2023/12/06 03:31:50;;;;;;;0.40;0.40;;;2.40;99.90;;;;;;2042908;29;20228;-82
2023/12/06 03:32:51;;;;;;;1.60;0.43;;;2.40;99.90;;;;;;2031796;29;20220;-82
2023/12/06 03:33:52;;;;;;;0.60;0.60;;;2.50;99.90;;;;;;2065737;28;20202;-82
2023/12/06 03:34:52;;;;;;;0.40;0.40;;;2.40;99.90;;;;;;2062134;28;20287;-82
2023/12/06 03:35:53;;;;;;;0.30;0.30;;;2.40;99.90;;;;;;2039552;28;20213;-82
2023/12/06 03:36:54;;;;;;;0.57;0.50;;;2.30;99.90;;;;;;2041227;28;20211;-82
2023/12/06 03:37:54;;;;;;;0.40;0.40;;;2.40;99.90;;;;;;2040383;29;20323;-82
2023/12/06 03:38:55;;;;;;;0.50;0.50;;;2.40;99.90;;;;;;2041388;29;20375;-81
2023/12/06 03:39:56;;;;;;;0.60;0.60;;;2.40;99.90;;;;;;2032398;28;20609;-82
2023/12/06 03:41:00;;;;;;;0.60;0.60;;;2.40;99.90;;;;;;2026731;29;20188;-82
2023/12/06 03:42:01;;;;;;;0.57;0.57;;;2.40;99.90;;;;;;2034489;28;20299;-81
2023/12/06 03:43:02;;;;;;;0.57;0.57;;;2.40;99.90;;;;;;2030168;29;20263;-83
2023/12/06 03:44:02;;;;;;;0.83;0.63;;;2.40;99.90;;;;;;2028828;29;20207;-82
2023/12/06 03:45:04;;;;;;;0.60;0.60;;;2.40;99.90;;;;;;2030767;29;20193;-82
2023/12/06 03:46:08;;;;;;;0.50;0.50;;;2.40;99.90;;;;;;2034714;28;20682;-82
2023/12/06 03:47:09;;;;;;;0.50;0.50;;;2.40;99.90;;;;;;2040542;28;20305;-82
2023/12/06 03:48:09;;;;;;;0.60;0.60;;;2.40;99.90;;;;;;2032450;28;20228;-82
2023/12/06 03:49:11;;;;;;;1.83;0.77;;;2.40;99.90;;;;;;2046607;28;20296;-82
2023/12/06 03:50:12;;;;;;;1.45;1.08;;;2.40;99.90;;;;;;2048086;28;20249;-82
2023/12/06 03:51:12;;;;;;;4.20;1.80;;;2.40;99.90;;;;;;2039048;29;20236;-83
2023/12/06 03:52:13;;;;;;;1.20;1.10;;;2.50;99.90;;;;;;2036680;28;20218;-82
2023/12/06 03:53:14;;;;;;;3.23;1.03;;;2.50;99.90;;;;;;2045624;28;20222;-82
2023/12/06 03:54:14;;;;;;;4.23;1.20;;;2.60;99.90;;;;;;2025002;28;20301;-82
2023/12/06 03:55:15;;;;;;;0.60;0.57;;;2.60;99.90;;;;;;2031976;29;20227;-82
2023/12/06 03:56:16;;;;;;;1.47;1.10;;;2.60;99.90;;;;;;2033314;28;20227;-83
2023/12/06 03:57:16;;;;;;;0.87;0.80;;;2.50;99.90;;;;;;2054154;28;20295;-82
2023/12/06 03:58:17;;;;;;;1.33;1.10;;;2.40;99.90;;;;;;2025089;28;20310;-82
2023/12/06 03:59:18;;;;;;;0.93;0.73;;;2.40;99.90;;;;;;2045117;28;20232;-82
2023/12/06 04:00:19;;;;;;;2.63;1.20;;;2.40;99.90;;;;;;2059493;28;20238;-82
2023/12/06 04:01:20;;;;;;;2.00;1.00;;;2.50;99.90;;;;;;2022131;29;20251;-82
2023/12/06 04:02:20;;;;;;;1.10;0.80;;;2.40;99.90;;;;;;2026629;28;20225;-83
2023/12/06 04:03:21;;;;;;;0.63;0.63;;;2.50;99.90;;;;;;2019555;29;20234;-82
2023/12/06 04:04:22;;;;;;;1.08;0.70;;;2.50;99.90;;;;;;2028933;28;20837;-83
2023/12/06 04:05:23;;;;;;;1.23;1.13;;;2.50;99.90;;;;;;2024384;29;20284;-82
2023/12/06 04:06:23;;;;;;;0.60;0.60;;;2.60;99.90;;;;;;2015518;28;20727;-82
2023/12/06 04:07:24;;;;;;;2.00;0.70;;;2.50;99.90;;;;;;2031872;28;20239;-82
2023/12/06 04:08:25;;;;;;;0.60;0.60;;;2.60;99.90;;;;;;2039519;29;20226;-82
2023/12/06 04:09:26;;;;;;;1.60;0.80;;;2.60;99.90;;;;;;2040200;29;20228;-82
2023/12/06 04:10:26;;;;;;;1.30;0.80;;;2.60;99.90;;;;;;2023178;29;20236;-83
2023/12/06 04:11:27;;;;;;;1.30;0.70;;;2.60;99.90;;;;;;2025016;28;20315;-82
2023/12/06 04:12:28;;;;;;;0.50;0.50;;;2.60;99.90;;;;;;2042497;28;20313;-83
2023/12/06 04:13:29;;;;;;;0.60;0.60;;;2.60;99.90;;;;;;2042533;28;20225;-81
2023/12/06 04:14:31;;;;;;;0.80;0.80;;;2.70;99.90;;;;;;2042022;28;20222;-82
2023/12/06 04:15:31;;;;;;;0.50;0.50;;;2.70;99.90;;;;;;2042588;28;20259;-83
2023/12/06 04:16:32;;;;;;;0.73;0.70;;;2.70;99.90;;;;;;2058307;28;20244;-83
2023/12/06 04:17:33;;;;;;;0.70;0.70;;;2.80;99.90;;;;;;2031261;28;20704;-82
2023/12/06 04:18:33;;;;;;;0.60;0.60;;;2.80;99.90;;;;;;2043832;29;20227;-82
2023/12/06 04:19:34;;;;;;;0.70;0.70;;;2.70;99.90;;;;;;2031193;28;20641;-82
2023/12/06 04:20:35;;;;;;;0.60;0.60;;;2.70;99.90;;;;;;2039161;29;20227;-82
2023/12/06 04:21:36;;;;;;;0.97;0.70;;;2.80;99.90;;;;;;2042018;29;20712;-82
2023/12/06 04:22:36;;;;;;;0.73;0.73;;;2.70;99.90;;;;;;2031740;29;20227;-82
2023/12/06 04:23:37;;;;;;;1.03;0.70;;;2.70;99.90;;;;;;2031414;29;20251;-82
2023/12/06 04:24:38;;;;;;;0.87;0.70;;;2.80;99.90;;;;;;2049994;28;20227;-82
2023/12/06 04:25:39;;;;;;;0.70;0.70;;;2.70;99.90;;;;;;2034842;29;20235;-82
2023/12/06 04:26:40;;;;;;;1.00;0.70;;;2.70;99.90;;;;;;2039197;28;20257;-82
2023/12/06 04:27:40;;;;;;;1.00;0.90;;;2.80;99.90;;;;;;2031401;29;20227;-83
2023/12/06 04:28:41;;;;;;;2.17;0.93;;;2.80;99.90;;;;;;2043023;28;20633;-82
2023/12/06 04:29:42;;;;;;;1.23;1.13;;;2.80;99.90;;;;;;2037858;28;20255;-83
2023/12/06 04:30:42;;;;;;;1.00;0.90;;;2.70;99.90;;;;;;2049421;28;20224;-83
2023/12/06 04:31:43;;;;;;;1.47;1.10;;;2.70;99.90;;;;;;2031734;29;20224;-82
2023/12/06 04:32:44;;;;;;;3.80;0.93;;;2.70;99.90;;;;;;2033404;28;20229;-82
2023/12/06 04:33:44;;;;;;;0.80;0.80;;;2.70;99.90;;;;;;2027643;29;20229;-83
2023/12/06 04:34:54;;;;;;;1.33;1.00;;;2.70;99.90;;;;;;2035179;28;20692;-83
2023/12/06 04:35:55;;;;;;;0.63;0.60;;;2.70;99.90;;;;;;2031354;29;20238;-82
2023/12/06 04:36:56;;;;;;;1.17;1.00;;;2.70;99.90;;;;;;2027779;28;20624;-82
2023/12/06 04:37:56;;;;;;;1.13;0.83;;;2.60;99.90;;;;;;2044886;28;20223;-82
2023/12/06 04:38:57;;;;;;;0.97;0.80;;;2.60;99.90;;;;;;2031852;29;20242;-83
2023/12/06 04:39:58;;;;;;;0.73;0.73;;;2.60;99.90;;;;;;2031928;28;20185;-82
2023/12/06 04:40:59;;;;;;;1.07;0.70;;;2.70;99.90;;;;;;2035483;28;20277;-83
2023/12/06 04:41:59;;;;;;;2.83;0.63;;;2.60;99.90;;;;;;2032658;28;20189;-82
2023/12/06 04:43:01;;;;;;;1.17;0.80;;;2.60;99.90;;;;;;2030402;29;20231;-82
2023/12/06 04:44:02;;;;;;;0.70;0.70;;;2.60;99.90;;;;;;2072612;28;20178;-82
2023/12/06 04:45:03;;;;;;;1.75;0.80;;;2.60;99.90;;;;;;2063185;28;20712;-83
2023/12/06 04:46:04;;;;;;;0.60;0.60;;;2.60;99.90;;;;;;2032028;28;20196;-82
2023/12/06 04:47:05;;;;;;;2.00;0.97;;;2.60;99.90;;;;;;2038374;28;20184;-83
2023/12/06 04:48:06;;;;;;;1.00;0.90;;;2.60;99.90;;;;;;2026338;29;20749;-82
2023/12/06 04:49:07;;;;;;;0.93;0.70;;;2.60;99.90;;;;;;2019518;29;20233;-82
2023/12/06 04:50:09;;;;;;;1.20;0.80;;;2.60;99.90;;;;;;2027520;29;20236;-82
2023/12/06 04:51:11;;;;;;;1.17;1.08;;;2.70;99.90;;;;;;2044916;28;20597;-81
2023/12/06 04:52:13;;;;;;;1.33;0.80;;;2.70;99.90;;;;;;2057625;28;20220;-83
2023/12/06 04:53:14;;;;;;;0.88;0.80;;;2.60;99.90;;;;;;2033058;28;20224;-81
2023/12/06 04:54:14;;;;;;;1.17;0.80;;;2.60;99.90;;;;;;2056785;28;20675;-82
2023/12/06 04:55:15;;;;;;;1.10;0.63;;;2.60;99.90;;;;;;2041993;28;20279;-82
2023/12/06 04:56:16;;;;;;;1.37;0.83;;;2.60;99.90;;;;;;2040898;28;20326;-82
2023/12/06 04:57:17;;;;;;;0.57;0.57;;;2.60;99.90;;;;;;2027823;28;20240;-83
2023/12/06 04:58:17;;;;;;;0.77;0.73;;;2.60;99.90;;;;;;2049790;28;20240;-83
2023/12/06 04:59:18;;;;;;;0.93;0.70;;;2.60;99.90;;;;;;2039052;28;20231;-83
2023/12/06 05:00:21;;;;;;;3.97;2.53;;;2.60;99.90;;;;;;2035803;28;20236;-83
2023/12/06 05:01:22;;;;;;;1.65;0.73;;;2.60;99.90;;;;;;2028660;28;20229;-82
2023/12/06 05:02:22;;;;;;;0.80;0.70;;;2.60;99.90;;;;;;2034416;29;20256;-81
2023/12/06 05:03:23;;;;;;;1.23;1.10;;;2.60;99.90;;;;;;2048645;29;20258;-82
2023/12/06 05:04:24;;;;;;;0.60;0.60;;;2.60;99.90;;;;;;2040286;28;20276;-83
2023/12/06 05:05:25;;;;;;;0.60;0.60;;;2.60;99.90;;;;;;2043430;28;20236;-83
2023/12/06 05:06:25;;;;;;;0.80;0.73;;;2.60;99.90;;;;;;2027429;29;20249;-82
2023/12/06 05:07:26;;;;;;;2.03;1.00;;;2.60;99.90;;;;;;2029949;29;20286;-82
2023/12/06 05:08:27;;;;;;;1.00;0.90;;;2.60;99.90;;;;;;2029812;28;20233;-82
2023/12/06 05:09:28;;;;;;;0.70;0.70;;;2.60;99.90;;;;;;2025701;28;20231;-83
2023/12/06 05:10:28;;;;;;;0.60;0.60;;;2.50;99.90;;;;;;2039925;28;20233;-82
2023/12/06 05:11:29;;;;;;;0.80;0.67;;;2.50;99.90;;;;;;2036608;28;20676;-82
2023/12/06 05:12:30;;;;;;;0.50;0.50;;;2.50;99.90;;;;;;2043169;28;20258;-83
2023/12/06 05:13:30;;;;;;;0.70;0.70;;;2.50;99.90;;;;;;2046132;28;20318;-83
2023/12/06 05:14:31;;;;;;;0.60;0.60;;;2.60;99.90;;;;;;2043169;29;20267;-83
2023/12/06 05:15:32;;;;;;;0.40;0.40;;;2.70;99.90;;;;;;2023261;29;20327;-82
2023/12/06 05:16:33;;;;;;;0.50;0.50;;;2.70;99.90;;;;;;2040756;28;20801;-82
2023/12/06 05:17:33;;;;;;;0.53;0.53;;;2.60;99.90;;;;;;2030020;29;20477;-81
2023/12/06 05:18:34;;;;;;;1.67;0.80;;;2.60;99.90;;;;;;2023829;28;20237;-81
2023/12/06 05:19:35;;;;;;;0.70;0.60;;;2.60;99.90;;;;;;2024399;29;21033;-81
2023/12/06 05:20:37;;;;;;;0.60;0.60;;;2.60;99.90;;;;;;2043191;28;20224;-81
2023/12/06 05:21:37;;;;;;;0.47;0.47;;;2.60;99.90;;;;;;2041591;29;20240;-83
2023/12/06 05:22:38;;;;;;;0.50;0.50;;;2.60;99.90;;;;;;2053729;28;20250;-82